sensor_id;sensor_type;location;lat;lon;timestamp;pressure;altitude;pressure_sealevel;temperature;humidity
76728;BME280;65652;53.132;18.026;2023-07-02T00:00:01;99771.71;;;20.63;54.39
76728;BME280;65652;53.132;18.026;2023-07-02T00:02:29;99769.40;;;20.64;54.59
76728;BME280;65652;53.132;18.026;2023-07-02T00:04:55;99772.41;;;20.64;54.68
76728;BME280;65652;53.132;18.026;2023-07-02T00:07:22;99775.63;;;20.66;54.74
76728;BME280;65652;53.132;18.026;2023-07-02T00:09:49;99781.80;;;20.65;54.88
76728;BME280;65652;53.132;18.026;2023-07-02T00:12:16;99785.41;;;20.65;54.93
76728;BME280;65652;53.132;18.026;2023-07-02T00:14:43;99788.42;;;20.65;55.03
76728;BME280;65652;53.132;18.026;2023-07-02T00:17:10;99790.29;;;20.66;55.06
76728;BME280;65652;53.132;18.026;2023-07-02T00:19:40;99788.88;;;20.66;55.20
76728;BME280;65652;53.132;18.026;2023-07-02T00:22:09;99788.88;;;20.65;55.13
76728;BME280;65652;53.132;18.026;2023-07-02T00:24:37;99784.22;;;20.65;55.22
76728;BME280;65652;53.132;18.026;2023-07-02T00:27:04;99787.92;;;20.63;55.41
76728;BME280;65652;53.132;18.026;2023-07-02T00:29:31;99780.56;;;20.54;55.60
76728;BME280;65652;53.132;18.026;2023-07-02T00:31:58;99782.61;;;20.47;55.87
76728;BME280;65652;53.132;18.026;2023-07-02T00:34:25;99780.91;;;20.43;55.88
76728;BME280;65652;53.132;18.026;2023-07-02T00:36:53;99784.50;;;20.38;56.29
76728;BME280;65652;53.132;18.026;2023-07-02T00:39:20;99776.45;;;20.30;56.49
76728;BME280;65652;53.132;18.026;2023-07-02T00:41:46;99772.92;;;20.29;56.41
76728;BME280;65652;53.132;18.026;2023-07-02T00:44:13;99770.48;;;20.28;56.56
76728;BME280;65652;53.132;18.026;2023-07-02T00:46:40;99776.39;;;20.26;56.69
76728;BME280;65652;53.132;18.026;2023-07-02T00:49:08;99771.15;;;20.23;57.18
76728;BME280;65652;53.132;18.026;2023-07-02T00:51:36;99763.73;;;20.19;57.11
76728;BME280;65652;53.132;18.026;2023-07-02T00:54:04;99768.89;;;20.14;57.34
76728;BME280;65652;53.132;18.026;2023-07-02T00:56:33;99762.80;;;20.11;57.83
76728;BME280;65652;53.132;18.026;2023-07-02T00:59:00;99755.71;;;20.10;57.59
76728;BME280;65652;53.132;18.026;2023-07-02T01:01:28;99752.57;;;20.10;57.95
76728;BME280;65652;53.132;18.026;2023-07-02T01:03:59;99753.25;;;20.08;58.04
76728;BME280;65652;53.132;18.026;2023-07-02T01:06:29;99754.72;;;20.11;58.12
76728;BME280;65652;53.132;18.026;2023-07-02T01:08:59;99762.08;;;20.11;58.20
76728;BME280;65652;53.132;18.026;2023-07-02T01:11:38;99753.96;;;20.10;58.23
76728;BME280;65652;53.132;18.026;2023-07-02T01:14:26;99753.68;;;20.10;58.46
76728;BME280;65652;53.132;18.026;2023-07-02T01:16:54;99753.19;;;20.08;58.92
76728;BME280;65652;53.132;18.026;2023-07-02T01:22:01;99760.13;;;19.99;59.06
76728;BME280;65652;53.132;18.026;2023-07-02T01:24:28;99759.42;;;19.98;59.21
76728;BME280;65652;53.132;18.026;2023-07-02T01:26:55;99755.23;;;19.97;59.20
76728;BME280;65652;53.132;18.026;2023-07-02T01:29:22;99748.05;;;19.92;59.33
76728;BME280;65652;53.132;18.026;2023-07-02T01:31:49;99744.44;;;19.87;59.51
76728;BME280;65652;53.132;18.026;2023-07-02T01:34:16;99750.43;;;19.87;59.76
76728;BME280;65652;53.132;18.026;2023-07-02T01:36:43;99748.23;;;19.88;59.79
76728;BME280;65652;53.132;18.026;2023-07-02T01:39:10;99752.72;;;19.86;60.15
76728;BME280;65652;53.132;18.026;2023-07-02T01:41:44;99752.77;;;19.84;60.06
76728;BME280;65652;53.132;18.026;2023-07-02T01:44:11;99752.75;;;19.79;60.30
76728;BME280;65652;53.132;18.026;2023-07-02T01:46:38;99756.90;;;19.68;60.65
76728;BME280;65652;53.132;18.026;2023-07-02T01:49:06;99752.63;;;19.63;60.97
76728;BME280;65652;53.132;18.026;2023-07-02T01:51:33;99753.90;;;19.57;61.46
76728;BME280;65652;53.132;18.026;2023-07-02T01:54:01;99752.95;;;19.49;62.22
76728;BME280;65652;53.132;18.026;2023-07-02T01:56:27;99749.48;;;19.33;62.61
76728;BME280;65652;53.132;18.026;2023-07-02T01:58:55;99744.86;;;19.21;62.58
76728;BME280;65652;53.132;18.026;2023-07-02T02:01:21;99746.36;;;19.17;63.08
76728;BME280;65652;53.132;18.026;2023-07-02T02:03:48;99740.04;;;19.12;62.86
76728;BME280;65652;53.132;18.026;2023-07-02T02:06:15;99734.17;;;19.13;62.77
76728;BME280;65652;53.132;18.026;2023-07-02T02:08:42;99733.80;;;19.13;63.26
76728;BME280;65652;53.132;18.026;2023-07-02T02:11:11;99732.73;;;19.09;63.38
76728;BME280;65652;53.132;18.026;2023-07-02T02:13:37;99731.91;;;19.08;63.47
76728;BME280;65652;53.132;18.026;2023-07-02T02:16:05;99733.70;;;19.05;63.77
76728;BME280;65652;53.132;18.026;2023-07-02T02:18:34;99731.98;;;19.00;63.83
76728;BME280;65652;53.132;18.026;2023-07-02T02:21:01;99736.48;;;18.96;64.18
76728;BME280;65652;53.132;18.026;2023-07-02T02:23:28;99735.63;;;18.91;64.49
76728;BME280;65652;53.132;18.026;2023-07-02T02:25:55;99731.79;;;18.88;64.37
76728;BME280;65652;53.132;18.026;2023-07-02T02:28:21;99732.42;;;18.85;65.02
76728;BME280;65652;53.132;18.026;2023-07-02T02:30:48;99734.36;;;18.81;64.84
76728;BME280;65652;53.132;18.026;2023-07-02T02:33:16;99736.14;;;18.76;66.16
76728;BME280;65652;53.132;18.026;2023-07-02T02:35:43;99733.23;;;18.64;65.80
76728;BME280;65652;53.132;18.026;2023-07-02T02:38:10;99737.85;;;18.60;66.00
76728;BME280;65652;53.132;18.026;2023-07-02T02:40:37;99741.77;;;18.57;65.98
76728;BME280;65652;53.132;18.026;2023-07-02T02:43:06;99734.47;;;18.55;66.12
76728;BME280;65652;53.132;18.026;2023-07-02T02:45:33;99737.23;;;18.54;66.70
76728;BME280;65652;53.132;18.026;2023-07-02T02:48:00;99742.17;;;18.49;67.56
76728;BME280;65652;53.132;18.026;2023-07-02T02:50:27;99737.80;;;18.40;67.82
76728;BME280;65652;53.132;18.026;2023-07-02T02:52:54;99733.29;;;18.33;67.83
76728;BME280;65652;53.132;18.026;2023-07-02T02:55:21;99732.62;;;18.29;67.89
76728;BME280;65652;53.132;18.026;2023-07-02T02:57:47;99731.38;;;18.26;68.26
76728;BME280;65652;53.132;18.026;2023-07-02T03:00:14;99731.46;;;18.23;68.59
76728;BME280;65652;53.132;18.026;2023-07-02T03:02:41;99731.91;;;18.22;68.79
76728;BME280;65652;53.132;18.026;2023-07-02T03:05:08;99727.86;;;18.20;69.14
76728;BME280;65652;53.132;18.026;2023-07-02T03:07:35;99725.89;;;18.18;69.51
76728;BME280;65652;53.132;18.026;2023-07-02T03:10:02;99728.60;;;18.15;69.70
76728;BME280;65652;53.132;18.026;2023-07-02T03:12:30;99724.55;;;18.13;69.88
76728;BME280;65652;53.132;18.026;2023-07-02T03:14:57;99720.48;;;18.10;70.48
76728;BME280;65652;53.132;18.026;2023-07-02T03:17:23;99718.86;;;18.06;70.71
76728;BME280;65652;53.132;18.026;2023-07-02T03:19:50;99724.38;;;18.02;71.09
76728;BME280;65652;53.132;18.026;2023-07-02T03:22:17;99721.04;;;18.01;71.04
76728;BME280;65652;53.132;18.026;2023-07-02T03:24:44;99716.91;;;18.01;71.16
76728;BME280;65652;53.132;18.026;2023-07-02T03:27:11;99719.66;;;18.01;71.19
76728;BME280;65652;53.132;18.026;2023-07-02T03:29:38;99715.14;;;18.02;71.37
76728;BME280;65652;53.132;18.026;2023-07-02T03:32:05;99715.83;;;18.01;71.50
76728;BME280;65652;53.132;18.026;2023-07-02T03:34:32;99715.52;;;18.00;71.77
76728;BME280;65652;53.132;18.026;2023-07-02T03:36:59;99713.73;;;17.99;71.79
76728;BME280;65652;53.132;18.026;2023-07-02T03:39:26;99714.47;;;17.97;71.96
76728;BME280;65652;53.132;18.026;2023-07-02T03:41:53;99713.73;;;17.98;71.82
76728;BME280;65652;53.132;18.026;2023-07-02T03:44:20;99710.92;;;17.99;72.04
76728;BME280;65652;53.132;18.026;2023-07-02T03:46:46;99712.36;;;17.99;72.01
76728;BME280;65652;53.132;18.026;2023-07-02T03:49:13;99713.23;;;18.00;72.09
76728;BME280;65652;53.132;18.026;2023-07-02T03:51:40;99715.75;;;18.00;72.20
76728;BME280;65652;53.132;18.026;2023-07-02T03:54:07;99715.50;;;18.01;72.31
76728;BME280;65652;53.132;18.026;2023-07-02T03:56:34;99723.05;;;18.03;72.40
76728;BME280;65652;53.132;18.026;2023-07-02T03:59:00;99722.36;;;18.04;72.33
76728;BME280;65652;53.132;18.026;2023-07-02T04:01:27;99721.91;;;18.06;72.46
76728;BME280;65652;53.132;18.026;2023-07-02T04:03:55;99719.64;;;18.07;72.41
76728;BME280;65652;53.132;18.026;2023-07-02T04:06:23;99718.10;;;18.08;72.41
76728;BME280;65652;53.132;18.026;2023-07-02T04:08:50;99721.34;;;18.09;72.32
76728;BME280;65652;53.132;18.026;2023-07-02T04:11:16;99720.14;;;18.10;72.46
76728;BME280;65652;53.132;18.026;2023-07-02T04:13:43;99720.34;;;18.11;72.35
76728;BME280;65652;53.132;18.026;2023-07-02T04:16:10;99716.64;;;18.13;72.24
76728;BME280;65652;53.132;18.026;2023-07-02T04:18:37;99717.13;;;18.16;72.10
76728;BME280;65652;53.132;18.026;2023-07-02T04:21:04;99713.68;;;18.21;72.25
76728;BME280;65652;53.132;18.026;2023-07-02T04:23:31;99711.61;;;18.25;72.18
76728;BME280;65652;53.132;18.026;2023-07-02T04:25:57;99709.17;;;18.28;71.83
76728;BME280;65652;53.132;18.026;2023-07-02T04:28:24;99711.04;;;18.34;71.93
76728;BME280;65652;53.132;18.026;2023-07-02T04:30:51;99711.77;;;18.36;71.76
76728;BME280;65652;53.132;18.026;2023-07-02T04:33:19;99714.41;;;18.40;71.86
76728;BME280;65652;53.132;18.026;2023-07-02T04:35:47;99715.81;;;18.43;71.73
76728;BME280;65652;53.132;18.026;2023-07-02T04:38:14;99712.80;;;18.45;71.78
76728;BME280;65652;53.132;18.026;2023-07-02T04:40:40;99714.08;;;18.49;71.59
76728;BME280;65652;53.132;18.026;2023-07-02T04:43:11;99718.04;;;18.53;71.60
76728;BME280;65652;53.132;18.026;2023-07-02T04:45:38;99720.85;;;18.55;71.66
76728;BME280;65652;53.132;18.026;2023-07-02T04:48:06;99726.09;;;18.57;71.69
76728;BME280;65652;53.132;18.026;2023-07-02T04:50:33;99727.77;;;18.56;71.67
76728;BME280;65652;53.132;18.026;2023-07-02T04:53:00;99726.70;;;18.56;71.51
76728;BME280;65652;53.132;18.026;2023-07-02T04:55:27;99727.48;;;18.58;71.36
76728;BME280;65652;53.132;18.026;2023-07-02T04:57:54;99731.04;;;18.60;71.88
76728;BME280;65652;53.132;18.026;2023-07-02T05:00:21;99737.35;;;18.58;72.47
76728;BME280;65652;53.132;18.026;2023-07-02T05:02:49;99741.90;;;18.52;73.31
76728;BME280;65652;53.132;18.026;2023-07-02T05:05:17;99746.64;;;18.43;74.06
76728;BME280;65652;53.132;18.026;2023-07-02T05:07:44;99743.19;;;18.32;74.23
76728;BME280;65652;53.132;18.026;2023-07-02T05:10:11;99742.52;;;18.24;74.76
76728;BME280;65652;53.132;18.026;2023-07-02T05:12:38;99757.27;;;18.18;75.19
76728;BME280;65652;53.132;18.026;2023-07-02T05:15:05;99758.86;;;18.13;75.70
76728;BME280;65652;53.132;18.026;2023-07-02T05:17:32;99759.27;;;18.06;76.28
76728;BME280;65652;53.132;18.026;2023-07-02T05:20:03;99766.44;;;17.99;76.59
76728;BME280;65652;53.132;18.026;2023-07-02T05:22:31;99772.40;;;17.95;76.43
76728;BME280;65652;53.132;18.026;2023-07-02T05:24:58;99773.17;;;17.93;76.46
76728;BME280;65652;53.132;18.026;2023-07-02T05:27:24;99776.30;;;17.94;76.62
76728;BME280;65652;53.132;18.026;2023-07-02T05:29:51;99777.77;;;17.95;76.57
76728;BME280;65652;53.132;18.026;2023-07-02T05:32:18;99778.05;;;17.95;76.53
76728;BME280;65652;53.132;18.026;2023-07-02T05:34:45;99783.58;;;17.97;76.48
76728;BME280;65652;53.132;18.026;2023-07-02T05:37:12;99784.85;;;17.96;76.71
76728;BME280;65652;53.132;18.026;2023-07-02T05:39:39;99781.38;;;17.96;76.74
76728;BME280;65652;53.132;18.026;2023-07-02T05:42:06;99784.02;;;17.96;76.50
76728;BME280;65652;53.132;18.026;2023-07-02T05:44:33;99780.86;;;17.98;76.71
76728;BME280;65652;53.132;18.026;2023-07-02T05:46:59;99781.77;;;18.01;76.82
76728;BME280;65652;53.132;18.026;2023-07-02T05:49:26;99780.37;;;18.02;76.80
76728;BME280;65652;53.132;18.026;2023-07-02T05:51:53;99786.61;;;18.06;76.77
76728;BME280;65652;53.132;18.026;2023-07-02T05:54:20;99788.39;;;18.11;76.83
76728;BME280;65652;53.132;18.026;2023-07-02T05:56:46;99793.32;;;18.16;76.64
76728;BME280;65652;53.132;18.026;2023-07-02T05:59:13;99793.31;;;18.17;76.40
76728;BME280;65652;53.132;18.026;2023-07-02T06:01:44;99787.22;;;18.20;76.32
76728;BME280;65652;53.132;18.026;2023-07-02T06:04:11;99784.27;;;18.23;75.98
76728;BME280;65652;53.132;18.026;2023-07-02T06:06:38;99776.67;;;18.26;75.93
76728;BME280;65652;53.132;18.026;2023-07-02T06:09:05;99769.45;;;18.28;75.34
76728;BME280;65652;53.132;18.026;2023-07-02T06:11:32;99779.23;;;18.29;75.42
76728;BME280;65652;53.132;18.026;2023-07-02T06:13:58;99779.16;;;18.31;75.02
76728;BME280;65652;53.132;18.026;2023-07-02T06:16:25;99784.47;;;18.35;75.01
76728;BME280;65652;53.132;18.026;2023-07-02T06:18:52;99781.75;;;18.41;74.71
76728;BME280;65652;53.132;18.026;2023-07-02T06:21:19;99789.09;;;18.45;74.31
76728;BME280;65652;53.132;18.026;2023-07-02T06:23:46;99793.05;;;18.47;73.95
76728;BME280;65652;53.132;18.026;2023-07-02T06:26:13;99792.62;;;18.48;73.81
76728;BME280;65652;53.132;18.026;2023-07-02T06:28:40;99806.04;;;18.49;73.72
76728;BME280;65652;53.132;18.026;2023-07-02T06:31:07;99802.48;;;18.49;73.53
76728;BME280;65652;53.132;18.026;2023-07-02T06:33:34;99806.13;;;18.51;73.44
76728;BME280;65652;53.132;18.026;2023-07-02T06:36:00;99805.46;;;18.56;72.83
76728;BME280;65652;53.132;18.026;2023-07-02T06:38:27;99806.58;;;18.60;72.34
76728;BME280;65652;53.132;18.026;2023-07-02T06:40:54;99805.79;;;18.73;71.50
76728;BME280;65652;53.132;18.026;2023-07-02T06:43:21;99809.95;;;19.00;70.14
76728;BME280;65652;53.132;18.026;2023-07-02T06:45:48;99808.95;;;19.26;67.83
76728;BME280;65652;53.132;18.026;2023-07-02T06:48:14;99801.62;;;19.38;67.41
76728;BME280;65652;53.132;18.026;2023-07-02T06:50:44;99809.52;;;19.49;65.83
76728;BME280;65652;53.132;18.026;2023-07-02T06:53:12;99804.73;;;19.56;64.46
76728;BME280;65652;53.132;18.026;2023-07-02T06:55:39;99811.08;;;19.76;64.64
76728;BME280;65652;53.132;18.026;2023-07-02T06:58:07;99810.28;;;19.97;63.71
76728;BME280;65652;53.132;18.026;2023-07-02T07:00:34;99807.17;;;19.98;62.81
76728;BME280;65652;53.132;18.026;2023-07-02T07:03:04;99814.64;;;19.84;63.05
76728;BME280;65652;53.132;18.026;2023-07-02T07:05:32;99823.47;;;19.72;63.55
76728;BME280;65652;53.132;18.026;2023-07-02T07:08:00;99821.09;;;19.65;63.42
76728;BME280;65652;53.132;18.026;2023-07-02T07:10:29;99829.36;;;19.71;63.80
76728;BME280;65652;53.132;18.026;2023-07-02T07:13:04;99824.27;;;19.75;63.01
76728;BME280;65652;53.132;18.026;2023-07-02T07:15:33;99834.91;;;19.75;63.42
76728;BME280;65652;53.132;18.026;2023-07-02T07:18:01;99840.97;;;19.76;62.47
76728;BME280;65652;53.132;18.026;2023-07-02T07:20:30;99837.95;;;19.76;62.49
76728;BME280;65652;53.132;18.026;2023-07-02T07:22:57;99838.96;;;19.82;61.64
76728;BME280;65652;53.132;18.026;2023-07-02T07:25:24;99833.95;;;19.88;61.25
76728;BME280;65652;53.132;18.026;2023-07-02T07:27:51;99839.47;;;19.92;60.93
76728;BME280;65652;53.132;18.026;2023-07-02T07:30:18;99840.08;;;20.06;60.49
76728;BME280;65652;53.132;18.026;2023-07-02T07:32:50;99837.58;;;20.21;59.24
76728;BME280;65652;53.132;18.026;2023-07-02T07:35:21;99835.27;;;20.40;59.09
76728;BME280;65652;53.132;18.026;2023-07-02T07:37:48;99841.16;;;20.52;58.81
76728;BME280;65652;53.132;18.026;2023-07-02T07:40:15;99829.09;;;20.55;57.93
76728;BME280;65652;53.132;18.026;2023-07-02T07:42:43;99829.04;;;20.56;57.17
76728;BME280;65652;53.132;18.026;2023-07-02T07:45:10;99830.54;;;20.61;57.16
76728;BME280;65652;53.132;18.026;2023-07-02T07:47:38;99831.54;;;20.66;57.14
76728;BME280;65652;53.132;18.026;2023-07-02T07:50:06;99830.23;;;20.69;56.88
76728;BME280;65652;53.132;18.026;2023-07-02T07:52:39;99833.41;;;20.76;57.12
76728;BME280;65652;53.132;18.026;2023-07-02T07:55:07;99841.66;;;20.85;56.76
76728;BME280;65652;53.132;18.026;2023-07-02T07:57:36;99843.02;;;21.14;54.30
76728;BME280;65652;53.132;18.026;2023-07-02T08:00:04;99847.63;;;21.35;52.61
76728;BME280;65652;53.132;18.026;2023-07-02T08:02:45;99853.39;;;21.35;52.18
76728;BME280;65652;53.132;18.026;2023-07-02T08:05:13;99860.27;;;21.38;51.88
76728;BME280;65652;53.132;18.026;2023-07-02T08:07:40;99855.29;;;21.48;51.37
76728;BME280;65652;53.132;18.026;2023-07-02T08:10:07;99857.27;;;21.58;51.49
76728;BME280;65652;53.132;18.026;2023-07-02T08:12:35;99847.09;;;21.58;49.91
76728;BME280;65652;53.132;18.026;2023-07-02T08:15:02;99853.45;;;21.46;49.84
76728;BME280;65652;53.132;18.026;2023-07-02T08:17:29;99854.13;;;21.28;50.60
76728;BME280;65652;53.132;18.026;2023-07-02T08:19:57;99865.05;;;21.21;50.71
76728;BME280;65652;53.132;18.026;2023-07-02T08:22:24;99867.83;;;21.12;51.31
76728;BME280;65652;53.132;18.026;2023-07-02T08:24:51;99863.45;;;21.15;51.59
76728;BME280;65652;53.132;18.026;2023-07-02T08:27:18;99865.61;;;21.32;51.41
76728;BME280;65652;53.132;18.026;2023-07-02T08:29:48;99858.55;;;21.74;50.09
76728;BME280;65652;53.132;18.026;2023-07-02T08:32:15;99860.02;;;22.10;48.64
76728;BME280;65652;53.132;18.026;2023-07-02T08:34:42;99857.36;;;22.43;48.12
76728;BME280;65652;53.132;18.026;2023-07-02T08:37:09;99857.90;;;22.71;47.71
76728;BME280;65652;53.132;18.026;2023-07-02T08:39:37;99855.72;;;22.91;47.71
76728;BME280;65652;53.132;18.026;2023-07-02T08:42:06;99860.01;;;23.19;46.49
76728;BME280;65652;53.132;18.026;2023-07-02T08:44:34;99862.56;;;23.36;46.02
76728;BME280;65652;53.132;18.026;2023-07-02T08:47:02;99867.03;;;23.60;44.44
76728;BME280;65652;53.132;18.026;2023-07-02T08:49:29;99862.45;;;23.76;43.95
76728;BME280;65652;53.132;18.026;2023-07-02T08:51:56;99867.09;;;23.94;43.65
76728;BME280;65652;53.132;18.026;2023-07-02T08:54:22;99860.55;;;24.06;41.39
76728;BME280;65652;53.132;18.026;2023-07-02T08:56:49;99857.27;;;24.08;41.45
76728;BME280;65652;53.132;18.026;2023-07-02T08:59:16;99857.33;;;24.08;41.95
76728;BME280;65652;53.132;18.026;2023-07-02T09:01:51;99861.02;;;24.06;41.39
76728;BME280;65652;53.132;18.026;2023-07-02T09:04:20;99860.05;;;24.09;41.11
76728;BME280;65652;53.132;18.026;2023-07-02T09:06:48;99853.41;;;24.29;40.83
76728;BME280;65652;53.132;18.026;2023-07-02T09:09:15;99858.33;;;24.51;40.48
76728;BME280;65652;53.132;18.026;2023-07-02T09:11:51;99852.10;;;24.61;39.60
76728;BME280;65652;53.132;18.026;2023-07-02T09:14:28;99852.16;;;24.70;39.39
76728;BME280;65652;53.132;18.026;2023-07-02T09:17:07;99853.98;;;24.81;39.59
76728;BME280;65652;53.132;18.026;2023-07-02T09:19:36;99849.54;;;24.94;38.94
76728;BME280;65652;53.132;18.026;2023-07-02T09:22:04;99835.36;;;25.03;38.59
76728;BME280;65652;53.132;18.026;2023-07-02T09:24:31;99836.48;;;25.21;38.42
76728;BME280;65652;53.132;18.026;2023-07-02T09:27:01;99847.48;;;25.37;37.52
76728;BME280;65652;53.132;18.026;2023-07-02T09:29:32;99849.91;;;25.47;37.11
76728;BME280;65652;53.132;18.026;2023-07-02T09:32:03;99849.90;;;25.45;36.65
76728;BME280;65652;53.132;18.026;2023-07-02T09:34:35;99850.88;;;25.32;36.96
76728;BME280;65652;53.132;18.026;2023-07-02T09:37:03;99878.73;;;25.40;36.45
76728;BME280;65652;53.132;18.026;2023-07-02T09:39:33;99865.88;;;25.41;36.62
76728;BME280;65652;53.132;18.026;2023-07-02T09:42:02;99862.16;;;25.56;36.50
76728;BME280;65652;53.132;18.026;2023-07-02T09:44:33;99870.31;;;25.73;36.14
76728;BME280;65652;53.132;18.026;2023-07-02T09:47:08;99864.35;;;25.74;35.28
76728;BME280;65652;53.132;18.026;2023-07-02T09:49:37;99876.64;;;25.72;35.60
76728;BME280;65652;53.132;18.026;2023-07-02T09:52:06;99860.13;;;25.79;35.09
76728;BME280;65652;53.132;18.026;2023-07-02T09:54:34;99866.19;;;25.88;34.87
76728;BME280;65652;53.132;18.026;2023-07-02T09:57:02;99843.86;;;26.12;34.74
76728;BME280;65652;53.132;18.026;2023-07-02T09:59:30;99846.27;;;26.36;34.44
76728;BME280;65652;53.132;18.026;2023-07-02T10:01:57;99849.14;;;26.45;34.31
76728;BME280;65652;53.132;18.026;2023-07-02T10:04:25;99869.73;;;26.54;33.44
76728;BME280;65652;53.132;18.026;2023-07-02T10:06:54;99860.14;;;26.56;32.56
76728;BME280;65652;53.132;18.026;2023-07-02T10:09:43;99869.80;;;26.47;32.57
76728;BME280;65652;53.132;18.026;2023-07-02T10:14:44;99848.02;;;26.27;33.17
76728;BME280;65652;53.132;18.026;2023-07-02T10:17:26;99856.14;;;26.12;33.54
76728;BME280;65652;53.132;18.026;2023-07-02T10:19:56;99853.98;;;26.27;33.67
76728;BME280;65652;53.132;18.026;2023-07-02T10:22:24;99859.30;;;26.28;33.53
76728;BME280;65652;53.132;18.026;2023-07-02T10:27:20;99868.02;;;25.76;34.35
76728;BME280;65652;53.132;18.026;2023-07-02T10:29:50;99861.88;;;25.56;33.59
76728;BME280;65652;53.132;18.026;2023-07-02T10:32:27;99869.58;;;25.30;33.00
76728;BME280;65652;53.132;18.026;2023-07-02T10:34:57;99870.69;;;24.98;33.61
76728;BME280;65652;53.132;18.026;2023-07-02T10:37:25;99863.92;;;24.77;33.82
76728;BME280;65652;53.132;18.026;2023-07-02T10:39:52;99863.77;;;24.72;34.31
76728;BME280;65652;53.132;18.026;2023-07-02T10:42:19;99863.85;;;25.14;34.42
76728;BME280;65652;53.132;18.026;2023-07-02T10:44:51;99858.71;;;25.51;34.24
76728;BME280;65652;53.132;18.026;2023-07-02T10:47:19;99864.05;;;25.91;33.66
76728;BME280;65652;53.132;18.026;2023-07-02T10:49:46;99856.61;;;26.30;32.90
76728;BME280;65652;53.132;18.026;2023-07-02T10:52:13;99854.48;;;26.49;32.87
76728;BME280;65652;53.132;18.026;2023-07-02T10:54:45;99860.19;;;26.56;32.32
76728;BME280;65652;53.132;18.026;2023-07-02T10:57:17;99859.27;;;26.32;32.66
76728;BME280;65652;53.132;18.026;2023-07-02T10:59:48;99852.36;;;26.02;33.25
76728;BME280;65652;53.132;18.026;2023-07-02T11:02:15;99850.11;;;25.94;33.79
76728;BME280;65652;53.132;18.026;2023-07-02T11:04:42;99852.66;;;26.11;34.05
76728;BME280;65652;53.132;18.026;2023-07-02T11:07:14;99862.10;;;26.02;33.44
76728;BME280;65652;53.132;18.026;2023-07-02T11:09:50;99863.41;;;25.77;33.79
76728;BME280;65652;53.132;18.026;2023-07-02T11:12:17;99857.52;;;25.63;34.15
76728;BME280;65652;53.132;18.026;2023-07-02T11:14:44;99862.30;;;25.78;33.64
76728;BME280;65652;53.132;18.026;2023-07-02T11:17:11;99863.91;;;26.22;32.92
76728;BME280;65652;53.132;18.026;2023-07-02T11:19:38;99863.71;;;26.23;32.57
76728;BME280;65652;53.132;18.026;2023-07-02T11:22:05;99868.73;;;26.52;32.70
76728;BME280;65652;53.132;18.026;2023-07-02T11:24:33;99863.01;;;26.42;32.77
76728;BME280;65652;53.132;18.026;2023-07-02T11:27:03;99863.17;;;26.38;33.06
76728;BME280;65652;53.132;18.026;2023-07-02T11:29:33;99866.14;;;26.75;32.57
76728;BME280;65652;53.132;18.026;2023-07-02T11:32:05;99867.20;;;26.93;32.43
76728;BME280;65652;53.132;18.026;2023-07-02T11:34:32;99867.32;;;26.95;32.14
76728;BME280;65652;53.132;18.026;2023-07-02T11:36:59;99865.06;;;26.87;31.52
76728;BME280;65652;53.132;18.026;2023-07-02T11:39:26;99872.30;;;26.50;31.55
76728;BME280;65652;53.132;18.026;2023-07-02T11:41:53;99869.86;;;26.33;31.76
76728;BME280;65652;53.132;18.026;2023-07-02T11:44:20;99872.79;;;26.56;31.57
76728;BME280;65652;53.132;18.026;2023-07-02T11:46:48;99882.52;;;26.92;31.12
76728;BME280;65652;53.132;18.026;2023-07-02T11:49:15;99877.73;;;26.86;30.91
76728;BME280;65652;53.132;18.026;2023-07-02T11:51:43;99871.71;;;26.89;30.61
76728;BME280;65652;53.132;18.026;2023-07-02T11:54:16;99876.79;;;26.95;30.83
76728;BME280;65652;53.132;18.026;2023-07-02T11:56:45;99882.31;;;27.00;30.42
76728;BME280;65652;53.132;18.026;2023-07-02T11:59:12;99892.63;;;27.10;30.14
76728;BME280;65652;53.132;18.026;2023-07-02T12:01:39;99884.23;;;27.09;30.19
76728;BME280;65652;53.132;18.026;2023-07-02T12:04:06;99873.23;;;27.00;30.73
76728;BME280;65652;53.132;18.026;2023-07-02T12:06:34;99868.82;;;27.36;30.71
76728;BME280;65652;53.132;18.026;2023-07-02T12:09:01;99867.59;;;27.72;30.10
76728;BME280;65652;53.132;18.026;2023-07-02T12:11:28;99864.03;;;27.84;29.60
76728;BME280;65652;53.132;18.026;2023-07-02T12:13:55;99871.67;;;27.89;29.47
76728;BME280;65652;53.132;18.026;2023-07-02T12:16:21;99864.69;;;27.88;29.43
76728;BME280;65652;53.132;18.026;2023-07-02T12:18:48;99873.48;;;27.49;29.60
76728;BME280;65652;53.132;18.026;2023-07-02T12:21:15;99869.50;;;27.41;29.86
76728;BME280;65652;53.132;18.026;2023-07-02T12:23:45;99867.59;;;26.96;30.04
76728;BME280;65652;53.132;18.026;2023-07-02T12:26:12;99871.38;;;26.43;30.81
76728;BME280;65652;53.132;18.026;2023-07-02T12:28:39;99879.45;;;26.05;31.41
76728;BME280;65652;53.132;18.026;2023-07-02T12:31:05;99877.07;;;25.68;32.00
76728;BME280;65652;53.132;18.026;2023-07-02T12:33:33;99885.54;;;25.26;32.64
76728;BME280;65652;53.132;18.026;2023-07-02T12:35:59;99887.48;;;25.06;33.27
76728;BME280;65652;53.132;18.026;2023-07-02T12:38:26;99883.45;;;24.99;33.74
76728;BME280;65652;53.132;18.026;2023-07-02T12:40:53;99885.00;;;25.29;33.44
76728;BME280;65652;53.132;18.026;2023-07-02T12:43:20;99887.50;;;25.90;33.20
76728;BME280;65652;53.132;18.026;2023-07-02T12:45:48;99887.71;;;26.01;32.81
76728;BME280;65652;53.132;18.026;2023-07-02T12:48:15;99883.13;;;25.77;33.42
76728;BME280;65652;53.132;18.026;2023-07-02T12:50:53;99891.52;;;25.54;33.97
76728;BME280;65652;53.132;18.026;2023-07-02T12:53:20;99888.70;;;25.33;34.27
76728;BME280;65652;53.132;18.026;2023-07-02T12:55:47;99901.31;;;25.20;34.38
76728;BME280;65652;53.132;18.026;2023-07-02T12:58:13;99898.96;;;25.12;34.68
76728;BME280;65652;53.132;18.026;2023-07-02T13:00:40;99906.12;;;25.12;34.94